| time (UTC) | temp F | wind direction | speed knots | gust knots | rain 1hr in | rain 24hr in | rain mn in | humidity % | barometer mb |
| 20260510073007 | 70 | 135 | 0.0 | 0.9 | 0.00 | 0.23 | 0.01 | 98 | 1011.1 |
| 20260510071510 | 70 | 223 | 0.0 | 0.0 | 0.00 | 0.23 | 0.01 | 98 | 1012.7 |
| 20260510070003 | 70 | 223 | 0.0 | 0.0 | 0.00 | 0.23 | 0.01 | 98 | 1012.6 |
| 20260510064510 | 70 | 223 | 0.0 | 0.0 | 0.00 | 0.23 | 0.01 | 98 | 1012.4 |
| 20260510063101 | 70 | 223 | 0.0 | 0.0 | 0.00 | 0.23 | 0.01 | 97 | 1012.6 |
| 20260510061600 | 70 | 223 | 0.0 | 0.0 | 0.00 | 0.23 | 0.01 | 97 | 1012.8 |
| 20260510060057 | 70 | 223 | 0.0 | 0.0 | 0.00 | 0.23 | 0.01 | 97 | 1012.9 |
| 20260510054600 | 70 | 223 | 0.0 | 0.9 | 0.00 | 0.23 | 0.01 | 97 | 1013.1 |
| 20260510053054 | 70 | 223 | 0.0 | 0.0 | 0.00 | 0.23 | 0.01 | 97 | 1013.2 |
| 20260510051603 | 70 | 223 | 0.0 | 0.0 | 0.01 | 0.23 | 0.01 | 97 | 1013.4 |
| 20260510050059 | 70 | 223 | 0.0 | 0.0 | 0.01 | 0.23 | 0.01 | 97 | 1013.6 |
| 20260510044557 | 70 | 223 | 0.0 | 0.0 | 0.01 | 0.35 | 0.01 | 97 | 1013.7 |
| 20260510043050 | 70 | 223 | 0.0 | 0.0 | 0.01 | 0.35 | 0.01 | 97 | 1013.6 |
| 20260510041602 | 70 | 223 | 0.0 | 0.0 | 0.00 | 0.34 | 0.00 | 97 | 1013.7 |
| 20260510040046 | 70 | 223 | 0.0 | 0.0 | 0.00 | 0.34 | 0.00 | 97 | 1013.5 |
| 20260510034551 | 70 | 223 | 0.0 | 0.0 | 0.00 | 0.44 | 0.34 | 97 | 1013.5 |
| 20260510033047 | 70 | 223 | 0.0 | 1.7 | 0.00 | 0.44 | 0.34 | 97 | 1013.7 |
| 20260510031549 | 70 | 272 | 0.0 | 0.0 | 0.00 | 0.44 | 0.34 | 97 | 1013.5 |
| 20260510030054 | 70 | 272 | 0.0 | 0.0 | 0.00 | 0.44 | 0.34 | 97 | 1013.3 |
| 20260510024549 | 70 | 272 | 0.0 | 0.0 | 0.00 | 0.83 | 0.34 | 97 | 1013.2 |
| 20260510023043 | 70 | 272 | 0.0 | 0.0 | 0.00 | 0.83 | 0.34 | 97 | 1013.0 |
| 20260510021543 | 70 | 272 | 0.0 | 0.0 | 0.00 | 0.83 | 0.34 | 97 | 1012.7 |
| 20260510020042 | 71 | 272 | 0.0 | 0.9 | 0.00 | 0.83 | 0.34 | 97 | 1012.7 |
| 20260510014542 | 71 | 208 | 0.0 | 0.9 | 0.00 | 1.19 | 0.34 | 97 | 1012.9 |
| 20260510013050 | 71 | 208 | 0.0 | 0.0 | 0.00 | 1.19 | 0.34 | 96 | 1012.5 |
| 20260510011541 | 71 | 208 | 0.0 | 0.0 | 0.00 | 1.19 | 0.34 | 97 | 1012.3 |
| 20260510010040 | 71 | 208 | 0.0 | 0.0 | 0.00 | 1.19 | 0.34 | 97 | 1012.4 |
| 20260510004540 | 71 | 208 | 0.0 | 0.0 | 0.00 | 1.19 | 0.34 | 96 | 1011.8 |
| 20260510003051 | 72 | 209 | 0.9 | 1.7 | 0.00 | 1.19 | 0.34 | 96 | 1012.0 |
| 20260510001539 | 72 | 217 | 0.0 | 0.9 | 0.00 | 1.19 | 0.34 | 96 | 1012.5 |
| 20260510000038 | 72 | 217 | 0.0 | 0.0 | 0.00 | 1.19 | 0.34 | 96 | 1012.6 |
| 20260509234556 | 72 | 217 | 0.0 | 0.0 | 0.00 | 1.19 | 0.34 | 96 | 1012.5 |
| 20260509233045 | 72 | 217 | 0.0 | 0.9 | 0.00 | 1.19 | 0.34 | 96 | 1012.4 |
| 20260509231555 | 72 | 217 | 0.0 | 0.0 | 0.00 | 1.19 | 0.34 | 96 | 1012.4 |
| 20260509230036 | 72 | 217 | 0.0 | 0.9 | 0.00 | 1.19 | 0.34 | 96 | 1012.3 |
| 20260509224536 | 72 | 217 | 0.0 | 0.9 | 0.00 | 1.19 | 0.34 | 95 | 1012.2 |
| 20260509223037 | 72 | 217 | 0.0 | 0.0 | 0.00 | 1.19 | 0.34 | 95 | 1012.1 |
| 20260509221535 | 72 | 88 | 0.0 | 0.9 | 0.02 | 1.19 | 0.34 | 95 | 1012.0 |
| 20260509220035 | 72 | 81 | 0.0 | 1.7 | 0.04 | 1.19 | 0.34 | 95 | 1012.0 |
| 20260509214534 | 72 | 88 | 0.0 | 2.6 | 0.06 | 1.19 | 0.34 | 95 | 1012.0 |
| 20260509213034 | 72 | 98 | 0.0 | 1.7 | 0.08 | 1.19 | 0.34 | 95 | 1012.0 |
| 20260509211534 | 72 | 90 | 0.0 | 2.6 | 0.09 | 1.17 | 0.32 | 95 | 1012.2 |
| 20260509210036 | 72 | 276 | 0.0 | 0.9 | 0.10 | 1.14 | 0.30 | 95 | 1012.2 |
| 20260509204534 | 72 | 269 | 0.0 | 0.9 | 0.10 | 1.12 | 0.28 | 95 | 1012.3 |
| 20260509203039 | 72 | 264 | 0.0 | 3.5 | 0.09 | 1.10 | 0.25 | 94 | 1012.4 |
| 20260509201531 | 72 | 276 | 0.0 | 1.7 | 0.08 | 1.07 | 0.22 | 94 | 1012.4 |
| 20260509200034 | 73 | 279 | 0.9 | 2.6 | 0.07 | 1.05 | 0.20 | 92 | 1012.3 |
| 20260509194530 | 74 | 273 | 0.0 | 2.6 | 0.05 | 1.03 | 0.18 | 91 | 1012.4 |
| 20260509193031 | 77 | 291 | 1.7 | 2.6 | 0.03 | 1.01 | 0.16 | 88 | 1012.2 |
| 20260509191530 | 77 | 220 | 0.0 | 0.9 | 0.01 | 0.99 | 0.14 | 88 | 1012.0 |
| 20260509190033 | 78 | 219 | 0.0 | 1.7 | 0.01 | 0.98 | 0.13 | 86 | 1011.8 |
| 20260509184539 | 78 | 221 | 0.0 | 1.7 | 0.01 | 0.98 | 0.13 | 86 | 1011.8 |
| 20260509183033 | 78 | 225 | 0.0 | 1.7 | 0.01 | 0.98 | 0.13 | 88 | 1012.1 |
| 20260509181526 | 80 | 225 | 0.0 | 1.7 | 0.01 | 0.98 | 0.13 | 82 | 1011.9 |
| 20260509180025 | 81 | 207 | 1.7 | 4.3 | 0.00 | 0.97 | 0.12 | 79 | 1012.1 |
| 20260509174525 | 81 | 213 | 0.9 | 4.3 | 0.00 | 0.97 | 0.12 | 79 | 1012.3 |
| 20260509173027 | 81 | 210 | 0.9 | 5.2 | 0.00 | 0.97 | 0.12 | 79 | 1012.2 |
| 20260509171528 | 80 | 200 | 1.7 | 4.3 | 0.00 | 0.97 | 0.12 | 80 | 1012.3 |
| 20260509170018 | 80 | 233 | 0.9 | 4.3 | 0.00 | 0.97 | 0.12 | 81 | 1012.4 |
| 20260509164515 | 79 | 195 | 1.7 | 5.2 | 0.00 | 0.97 | 0.12 | 82 | 1012.6 |
| 20260509163022 | 79 | 106 | 1.7 | 3.5 | 0.00 | 0.97 | 0.12 | 82 | 1012.5 |
| 20260509161518 | 79 | 192 | 1.7 | 5.2 | 0.00 | 0.97 | 0.12 | 84 | 1012.8 |
| 20260509160009 | 77 | 94 | 0.0 | 3.5 | 0.00 | 0.97 | 0.12 | 86 | 1012.4 |
| 20260509154505 | 76 | 100 | 0.9 | 2.6 | 0.00 | 0.97 | 0.12 | 87 | 1012.1 |
| 20260509153006 | 75 | 111 | 1.7 | 4.3 | 0.00 | 0.97 | 0.12 | 87 | 1012.8 |
| 20260509151612 | 74 | 129 | 0.0 | 2.6 | 0.00 | 0.97 | 0.12 | 88 | 1013.1 |
| 20260509150109 | 74 | 280 | 0.0 | 1.7 | 0.00 | 0.97 | 0.12 | 88 | 1013.5 |
| 20260509144559 | 74 | 97 | 0.0 | 0.9 | 0.00 | 0.97 | 0.12 | 90 | 1013.5 |
| 20260509143054 | 73 | 97 | 0.0 | 1.7 | 0.00 | 0.97 | 0.12 | 91 | 1013.3 |
| 20260509141543 | 73 | 97 | 0.0 | 0.9 | 0.00 | 0.97 | 0.12 | 91 | 1013.1 |
| 20260509140042 | 72 | 265 | 0.0 | 0.9 | 0.00 | 0.97 | 0.12 | 92 | 1013.1 |
| 20260509134539 | 72 | 262 | 0.0 | 1.7 | 0.00 | 0.97 | 0.12 | 95 | 1013.0 |
| 20260509133036 | 71 | 287 | 0.0 | 0.9 | 0.00 | 0.97 | 0.12 | 95 | 1012.9 |
| 20260509131534 | 71 | 90 | 0.0 | 0.9 | 0.00 | 0.97 | 0.12 | 96 | 1012.6 |
| 20260509130033 | 71 | 80 | 0.0 | 1.7 | 0.00 | 0.97 | 0.12 | 97 | 1012.4 |
| 20260509124540 | 70 | 93 | 0.0 | 0.9 | 0.00 | 0.97 | 0.12 | 97 | 1012.5 |
| 20260509123032 | 70 | 93 | 0.0 | 1.7 | 0.00 | 0.97 | 0.12 | 97 | 1012.1 |
| 20260509121541 | 69 | 150 | 0.0 | 0.0 | 0.00 | 0.97 | 0.12 | 97 | 1012.4 |
| 20260509120028 | 68 | 150 | 0.0 | 0.0 | 0.00 | 0.97 | 0.12 | 97 | 1012.2 |
| 20260509114547 | 68 | 150 | 0.0 | 0.0 | 0.00 | 0.97 | 0.12 | 97 | 1012.1 |
| 20260509113026 | 67 | 150 | 0.0 | 0.9 | 0.00 | 0.97 | 0.12 | 97 | 1012.0 |
| 20260509111525 | 67 | 248 | 0.0 | 0.0 | 0.00 | 0.97 | 0.12 | 97 | 1012.0 |
| 20260509110024 | 67 | 246 | 0.0 | 0.0 | 0.00 | 0.97 | 0.12 | 96 | 1011.7 |
| 20260509104526 | 67 | 245 | 0.0 | 0.9 | 0.00 | 0.97 | 0.12 | 97 | 1011.1 |
| 20260509103023 | 67 | 245 | 0.0 | 0.9 | 0.00 | 0.97 | 0.12 | 97 | 1011.1 |
| 20260509101524 | 68 | 245 | 0.0 | 0.9 | 0.00 | 0.97 | 0.12 | 96 | 1011.0 |
| 20260509100021 | 68 | 188 | 0.0 | 0.9 | 0.00 | 0.97 | 0.12 | 97 | 1010.4 |
| 20260509094524 | 68 | 187 | 0.0 | 0.9 | 0.00 | 0.97 | 0.12 | 97 | 1010.4 |
| 20260509093020 | 68 | 192 | 0.0 | 4.3 | 0.00 | 0.97 | 0.12 | 97 | 1010.1 |
| 20260509091519 | 68 | 194 | 0.9 | 4.3 | 0.00 | 0.97 | 0.12 | 97 | 1010.1 |
| 20260509090042 | 68 | 217 | 0.9 | 4.3 | 0.00 | 0.97 | 0.12 | 97 | 1009.9 |
| 20260509084521 | 68 | 190 | 0.0 | 0.9 | 0.00 | 0.97 | 0.12 | 97 | 1010.8 |
| 20260509083037 | 68 | 190 | 0.0 | 0.0 | 0.00 | 0.97 | 0.12 | 97 | 1011.5 |
| 20260509081523 | 68 | 189 | 0.0 | 0.0 | 0.00 | 0.97 | 0.12 | 97 | 1011.6 |
| 20260509080013 | 68 | 188 | 0.0 | 0.0 | 0.00 | 0.97 | 0.12 | 97 | 1011.1 |
| 20260509074526 | 68 | 188 | 0.0 | 2.6 | 0.00 | 0.97 | 0.12 | 97 | 1011.2 |